sensor_id;sensor_type;location;lat;lon;timestamp;temperature;humidity
24468;DHT22;12634;50.852;5.676;2024-01-15T00:00:23;1.20;99.90
24468;DHT22;12634;50.852;5.676;2024-01-15T00:02:51;1.30;99.90
24468;DHT22;12634;50.852;5.676;2024-01-15T00:05:20;1.20;99.90
24468;DHT22;12634;50.852;5.676;2024-01-15T00:07:47;1.30;99.90
24468;DHT22;12634;50.852;5.676;2024-01-15T00:10:15;1.30;99.90
24468;DHT22;12634;50.852;5.676;2024-01-15T00:12:42;1.40;99.90
24468;DHT22;12634;50.852;5.676;2024-01-15T00:15:09;1.30;99.90
24468;DHT22;12634;50.852;5.676;2024-01-15T00:17:36;1.40;99.90
24468;DHT22;12634;50.852;5.676;2024-01-15T00:20:04;1.50;99.90
24468;DHT22;12634;50.852;5.676;2024-01-15T00:22:33;1.50;99.90
24468;DHT22;12634;50.852;5.676;2024-01-15T00:25:01;1.40;99.90
24468;DHT22;12634;50.852;5.676;2024-01-15T00:27:28;1.40;99.90
24468;DHT22;12634;50.852;5.676;2024-01-15T00:29:55;1.50;99.90
24468;DHT22;12634;50.852;5.676;2024-01-15T00:32:22;1.50;99.90
24468;DHT22;12634;50.852;5.676;2024-01-15T00:34:49;1.50;99.90
24468;DHT22;12634;50.852;5.676;2024-01-15T00:37:18;1.60;99.90
24468;DHT22;12634;50.852;5.676;2024-01-15T00:39:47;1.40;99.90
24468;DHT22;12634;50.852;5.676;2024-01-15T00:42:14;1.30;99.90
24468;DHT22;12634;50.852;5.676;2024-01-15T00:44:42;1.30;99.90
24468;DHT22;12634;50.852;5.676;2024-01-15T00:47:09;1.30;99.90
24468;DHT22;12634;50.852;5.676;2024-01-15T00:49:36;1.30;99.90
24468;DHT22;12634;50.852;5.676;2024-01-15T00:52:04;1.20;99.90
24468;DHT22;12634;50.852;5.676;2024-01-15T00:54:31;1.20;99.90
24468;DHT22;12634;50.852;5.676;2024-01-15T00:56:59;1.20;99.90
24468;DHT22;12634;50.852;5.676;2024-01-15T00:59:27;1.20;99.90
24468;DHT22;12634;50.852;5.676;2024-01-15T01:01:53;1.20;99.90
24468;DHT22;12634;50.852;5.676;2024-01-15T01:04:20;1.10;99.90
24468;DHT22;12634;50.852;5.676;2024-01-15T01:06:47;1.10;99.90
24468;DHT22;12634;50.852;5.676;2024-01-15T01:09:14;1.10;99.90
24468;DHT22;12634;50.852;5.676;2024-01-15T01:11:41;1.00;99.90
24468;DHT22;12634;50.852;5.676;2024-01-15T01:14:10;1.00;99.90
24468;DHT22;12634;50.852;5.676;2024-01-15T01:16:37;1.00;99.90
24468;DHT22;12634;50.852;5.676;2024-01-15T01:19:05;1.00;99.90
24468;DHT22;12634;50.852;5.676;2024-01-15T01:21:33;1.10;99.90
24468;DHT22;12634;50.852;5.676;2024-01-15T01:24:00;1.00;99.90
24468;DHT22;12634;50.852;5.676;2024-01-15T01:26:27;1.00;99.90
24468;DHT22;12634;50.852;5.676;2024-01-15T01:28:54;0.90;99.90
24468;DHT22;12634;50.852;5.676;2024-01-15T01:31:23;0.90;99.90
24468;DHT22;12634;50.852;5.676;2024-01-15T01:33:50;0.90;99.90
24468;DHT22;12634;50.852;5.676;2024-01-15T01:36:17;0.90;99.90
24468;DHT22;12634;50.852;5.676;2024-01-15T01:38:44;0.90;99.90
24468;DHT22;12634;50.852;5.676;2024-01-15T01:41:12;0.90;99.90
24468;DHT22;12634;50.852;5.676;2024-01-15T01:43:39;1.00;99.90
24468;DHT22;12634;50.852;5.676;2024-01-15T01:46:06;1.00;99.90
24468;DHT22;12634;50.852;5.676;2024-01-15T01:48:34;1.10;99.90
24468;DHT22;12634;50.852;5.676;2024-01-15T01:51:03;1.10;99.90
24468;DHT22;12634;50.852;5.676;2024-01-15T01:53:32;1.20;99.90
24468;DHT22;12634;50.852;5.676;2024-01-15T01:56:01;1.10;99.90
24468;DHT22;12634;50.852;5.676;2024-01-15T01:58:29;1.20;99.90
24468;DHT22;12634;50.852;5.676;2024-01-15T02:00:57;1.20;99.90
24468;DHT22;12634;50.852;5.676;2024-01-15T02:03:27;1.20;99.90
24468;DHT22;12634;50.852;5.676;2024-01-15T02:05:56;1.20;99.90
24468;DHT22;12634;50.852;5.676;2024-01-15T02:08:23;1.30;99.90
24468;DHT22;12634;50.852;5.676;2024-01-15T02:10:50;1.30;99.90
24468;DHT22;12634;50.852;5.676;2024-01-15T02:13:17;1.30;99.90
24468;DHT22;12634;50.852;5.676;2024-01-15T02:15:45;1.30;99.90
24468;DHT22;12634;50.852;5.676;2024-01-15T02:18:12;1.40;99.90
24468;DHT22;12634;50.852;5.676;2024-01-15T02:20:39;1.30;99.90
24468;DHT22;12634;50.852;5.676;2024-01-15T02:23:12;1.20;99.90
24468;DHT22;12634;50.852;5.676;2024-01-15T02:25:40;1.30;99.90
24468;DHT22;12634;50.852;5.676;2024-01-15T02:28:10;1.30;99.90
24468;DHT22;12634;50.852;5.676;2024-01-15T02:30:38;1.30;99.90
24468;DHT22;12634;50.852;5.676;2024-01-15T02:33:06;1.30;99.90
24468;DHT22;12634;50.852;5.676;2024-01-15T02:35:33;1.20;99.90
24468;DHT22;12634;50.852;5.676;2024-01-15T02:38:02;1.30;99.90
24468;DHT22;12634;50.852;5.676;2024-01-15T02:40:31;1.30;99.90
24468;DHT22;12634;50.852;5.676;2024-01-15T02:42:58;1.40;99.90
24468;DHT22;12634;50.852;5.676;2024-01-15T02:45:25;1.40;99.90
24468;DHT22;12634;50.852;5.676;2024-01-15T02:47:52;1.40;99.90
24468;DHT22;12634;50.852;5.676;2024-01-15T02:50:20;1.40;99.90
24468;DHT22;12634;50.852;5.676;2024-01-15T02:52:47;1.40;99.90
24468;DHT22;12634;50.852;5.676;2024-01-15T02:55:14;1.40;99.90
24468;DHT22;12634;50.852;5.676;2024-01-15T02:57:43;1.40;99.90
24468;DHT22;12634;50.852;5.676;2024-01-15T03:00:10;1.40;99.90
24468;DHT22;12634;50.852;5.676;2024-01-15T03:02:39;1.40;99.90
24468;DHT22;12634;50.852;5.676;2024-01-15T03:05:09;1.50;99.90
24468;DHT22;12634;50.852;5.676;2024-01-15T03:07:36;1.50;99.90
24468;DHT22;12634;50.852;5.676;2024-01-15T03:10:05;1.50;99.90
24468;DHT22;12634;50.852;5.676;2024-01-15T03:12:32;1.50;99.90
24468;DHT22;12634;50.852;5.676;2024-01-15T03:15:01;1.50;99.90
24468;DHT22;12634;50.852;5.676;2024-01-15T03:17:28;1.50;99.90
24468;DHT22;12634;50.852;5.676;2024-01-15T03:19:55;1.60;99.90
24468;DHT22;12634;50.852;5.676;2024-01-15T03:22:22;1.60;99.90
24468;DHT22;12634;50.852;5.676;2024-01-15T03:24:50;1.50;99.90
24468;DHT22;12634;50.852;5.676;2024-01-15T03:27:17;1.50;99.90
24468;DHT22;12634;50.852;5.676;2024-01-15T03:29:44;1.60;99.90
24468;DHT22;12634;50.852;5.676;2024-01-15T03:32:12;1.50;99.90
24468;DHT22;12634;50.852;5.676;2024-01-15T03:34:41;1.50;99.90
24468;DHT22;12634;50.852;5.676;2024-01-15T03:37:08;1.60;99.90
24468;DHT22;12634;50.852;5.676;2024-01-15T03:39:35;1.60;99.90
24468;DHT22;12634;50.852;5.676;2024-01-15T03:42:03;1.60;99.90
24468;DHT22;12634;50.852;5.676;2024-01-15T03:44:30;1.60;99.90
24468;DHT22;12634;50.852;5.676;2024-01-15T03:46:57;1.50;99.90
24468;DHT22;12634;50.852;5.676;2024-01-15T03:49:26;1.50;99.90
24468;DHT22;12634;50.852;5.676;2024-01-15T03:51:53;1.50;99.90
24468;DHT22;12634;50.852;5.676;2024-01-15T03:54:20;1.60;99.90
24468;DHT22;12634;50.852;5.676;2024-01-15T03:56:47;1.50;99.90
24468;DHT22;12634;50.852;5.676;2024-01-15T03:59:13;1.40;99.90
24468;DHT22;12634;50.852;5.676;2024-01-15T04:01:40;1.40;99.90
24468;DHT22;12634;50.852;5.676;2024-01-15T04:04:08;1.40;99.90
24468;DHT22;12634;50.852;5.676;2024-01-15T04:06:37;1.50;99.90
24468;DHT22;12634;50.852;5.676;2024-01-15T04:09:04;1.40;99.90
24468;DHT22;12634;50.852;5.676;2024-01-15T04:11:31;1.50;99.90
24468;DHT22;12634;50.852;5.676;2024-01-15T04:13:58;1.50;99.90
24468;DHT22;12634;50.852;5.676;2024-01-15T04:16:25;1.50;99.90
24468;DHT22;12634;50.852;5.676;2024-01-15T04:18:53;1.60;99.90
24468;DHT22;12634;50.852;5.676;2024-01-15T04:21:20;1.60;99.90
24468;DHT22;12634;50.852;5.676;2024-01-15T04:23:48;1.60;99.90
24468;DHT22;12634;50.852;5.676;2024-01-15T04:26:15;1.60;99.90
24468;DHT22;12634;50.852;5.676;2024-01-15T04:28:42;1.60;99.90
24468;DHT22;12634;50.852;5.676;2024-01-15T04:31:09;1.60;99.90
24468;DHT22;12634;50.852;5.676;2024-01-15T04:33:47;1.60;99.90
24468;DHT22;12634;50.852;5.676;2024-01-15T04:36:14;1.60;99.90
24468;DHT22;12634;50.852;5.676;2024-01-15T04:38:41;1.60;99.90
24468;DHT22;12634;50.852;5.676;2024-01-15T04:41:11;1.60;99.90
24468;DHT22;12634;50.852;5.676;2024-01-15T04:43:39;1.60;99.90
24468;DHT22;12634;50.852;5.676;2024-01-15T04:46:06;1.60;99.90
24468;DHT22;12634;50.852;5.676;2024-01-15T04:48:34;1.60;99.90
24468;DHT22;12634;50.852;5.676;2024-01-15T04:51:01;1.60;99.90
24468;DHT22;12634;50.852;5.676;2024-01-15T04:53:30;1.60;99.90
24468;DHT22;12634;50.852;5.676;2024-01-15T04:55:57;1.50;99.90
24468;DHT22;12634;50.852;5.676;2024-01-15T04:58:26;1.50;99.90
24468;DHT22;12634;50.852;5.676;2024-01-15T05:00:53;1.50;99.90
24468;DHT22;12634;50.852;5.676;2024-01-15T05:03:21;1.50;99.90
24468;DHT22;12634;50.852;5.676;2024-01-15T05:05:48;1.50;99.90
24468;DHT22;12634;50.852;5.676;2024-01-15T05:08:15;1.60;99.90
24468;DHT22;12634;50.852;5.676;2024-01-15T05:10:42;1.60;99.90
24468;DHT22;12634;50.852;5.676;2024-01-15T05:13:09;1.50;99.90
24468;DHT22;12634;50.852;5.676;2024-01-15T05:15:38;1.60;99.90
24468;DHT22;12634;50.852;5.676;2024-01-15T05:18:05;1.50;99.90
24468;DHT22;12634;50.852;5.676;2024-01-15T05:20:32;1.50;99.90
24468;DHT22;12634;50.852;5.676;2024-01-15T05:22:59;1.50;99.90
24468;DHT22;12634;50.852;5.676;2024-01-15T05:25:27;1.50;99.90
24468;DHT22;12634;50.852;5.676;2024-01-15T05:27:54;1.50;99.90
24468;DHT22;12634;50.852;5.676;2024-01-15T05:30:21;1.40;99.90
24468;DHT22;12634;50.852;5.676;2024-01-15T05:32:50;1.50;99.90
24468;DHT22;12634;50.852;5.676;2024-01-15T05:35:17;1.50;99.90
24468;DHT22;12634;50.852;5.676;2024-01-15T05:37:45;1.40;99.90
24468;DHT22;12634;50.852;5.676;2024-01-15T05:40:13;1.40;99.90
24468;DHT22;12634;50.852;5.676;2024-01-15T05:42:40;1.40;99.90
24468;DHT22;12634;50.852;5.676;2024-01-15T05:45:08;1.40;99.90
24468;DHT22;12634;50.852;5.676;2024-01-15T05:47:35;1.40;99.90
24468;DHT22;12634;50.852;5.676;2024-01-15T05:50:04;1.50;99.90
24468;DHT22;12634;50.852;5.676;2024-01-15T05:52:32;1.40;99.90
24468;DHT22;12634;50.852;5.676;2024-01-15T05:54:59;1.50;99.90
24468;DHT22;12634;50.852;5.676;2024-01-15T05:57:27;1.50;99.90
24468;DHT22;12634;50.852;5.676;2024-01-15T05:59:54;1.50;99.90
24468;DHT22;12634;50.852;5.676;2024-01-15T06:02:21;1.50;99.90
24468;DHT22;12634;50.852;5.676;2024-01-15T06:04:48;1.50;99.90
24468;DHT22;12634;50.852;5.676;2024-01-15T06:07:17;1.40;99.90
24468;DHT22;12634;50.852;5.676;2024-01-15T06:09:44;1.40;99.90
24468;DHT22;12634;50.852;5.676;2024-01-15T06:12:11;1.30;99.90
24468;DHT22;12634;50.852;5.676;2024-01-15T06:14:38;1.30;99.90
24468;DHT22;12634;50.852;5.676;2024-01-15T06:17:07;1.30;99.90
24468;DHT22;12634;50.852;5.676;2024-01-15T06:19:34;1.30;99.90
24468;DHT22;12634;50.852;5.676;2024-01-15T06:22:02;1.30;99.90
24468;DHT22;12634;50.852;5.676;2024-01-15T06:24:30;1.30;99.90
24468;DHT22;12634;50.852;5.676;2024-01-15T06:26:58;1.30;99.90
24468;DHT22;12634;50.852;5.676;2024-01-15T06:29:26;1.30;99.90
24468;DHT22;12634;50.852;5.676;2024-01-15T06:31:53;1.30;99.90
24468;DHT22;12634;50.852;5.676;2024-01-15T06:34:20;1.30;99.90
24468;DHT22;12634;50.852;5.676;2024-01-15T06:36:47;1.30;99.90
24468;DHT22;12634;50.852;5.676;2024-01-15T06:39:15;1.30;99.90
24468;DHT22;12634;50.852;5.676;2024-01-15T06:41:43;1.30;99.90
24468;DHT22;12634;50.852;5.676;2024-01-15T06:44:10;1.30;99.90
24468;DHT22;12634;50.852;5.676;2024-01-15T06:46:42;1.20;99.90
24468;DHT22;12634;50.852;5.676;2024-01-15T06:49:09;1.20;99.90
24468;DHT22;12634;50.852;5.676;2024-01-15T06:51:36;1.20;99.90
24468;DHT22;12634;50.852;5.676;2024-01-15T06:54:03;1.10;99.90
24468;DHT22;12634;50.852;5.676;2024-01-15T06:56:30;1.10;99.90
24468;DHT22;12634;50.852;5.676;2024-01-15T06:58:59;1.10;99.90
24468;DHT22;12634;50.852;5.676;2024-01-15T07:01:26;1.10;99.90
24468;DHT22;12634;50.852;5.676;2024-01-15T07:03:53;1.10;99.90
24468;DHT22;12634;50.852;5.676;2024-01-15T07:06:20;1.10;99.90
24468;DHT22;12634;50.852;5.676;2024-01-15T07:08:48;1.20;99.90
24468;DHT22;12634;50.852;5.676;2024-01-15T07:11:16;1.10;99.90
24468;DHT22;12634;50.852;5.676;2024-01-15T07:13:43;1.20;99.90
24468;DHT22;12634;50.852;5.676;2024-01-15T07:16:11;1.20;99.90
24468;DHT22;12634;50.852;5.676;2024-01-15T07:18:38;1.30;99.90
24468;DHT22;12634;50.852;5.676;2024-01-15T07:21:05;1.30;99.90
24468;DHT22;12634;50.852;5.676;2024-01-15T07:23:32;1.20;99.90
24468;DHT22;12634;50.852;5.676;2024-01-15T07:26:00;1.30;99.90
24468;DHT22;12634;50.852;5.676;2024-01-15T07:28:28;1.30;99.90
24468;DHT22;12634;50.852;5.676;2024-01-15T07:30:56;1.30;99.90
24468;DHT22;12634;50.852;5.676;2024-01-15T07:33:24;1.30;99.90
24468;DHT22;12634;50.852;5.676;2024-01-15T07:35:52;1.40;99.90
24468;DHT22;12634;50.852;5.676;2024-01-15T07:38:19;1.40;99.90
24468;DHT22;12634;50.852;5.676;2024-01-15T07:40:46;1.40;99.90
24468;DHT22;12634;50.852;5.676;2024-01-15T07:43:15;1.50;99.90
24468;DHT22;12634;50.852;5.676;2024-01-15T07:45:42;1.40;99.90
24468;DHT22;12634;50.852;5.676;2024-01-15T07:48:09;1.50;99.90
24468;DHT22;12634;50.852;5.676;2024-01-15T07:50:37;1.50;99.90
24468;DHT22;12634;50.852;5.676;2024-01-15T07:53:05;1.50;99.90
24468;DHT22;12634;50.852;5.676;2024-01-15T07:55:32;1.40;99.90
24468;DHT22;12634;50.852;5.676;2024-01-15T07:57:59;1.50;99.90
24468;DHT22;12634;50.852;5.676;2024-01-15T08:00:27;1.50;99.90
24468;DHT22;12634;50.852;5.676;2024-01-15T08:02:54;1.60;99.90
24468;DHT22;12634;50.852;5.676;2024-01-15T08:05:21;1.60;99.90
24468;DHT22;12634;50.852;5.676;2024-01-15T08:07:49;1.50;99.90
24468;DHT22;12634;50.852;5.676;2024-01-15T08:10:17;1.60;99.90
24468;DHT22;12634;50.852;5.676;2024-01-15T08:12:44;1.60;99.90
24468;DHT22;12634;50.852;5.676;2024-01-15T08:15:11;1.60;99.90
24468;DHT22;12634;50.852;5.676;2024-01-15T08:17:38;1.60;99.90
24468;DHT22;12634;50.852;5.676;2024-01-15T08:20:06;1.60;99.90
24468;DHT22;12634;50.852;5.676;2024-01-15T08:22:34;1.70;99.90
24468;DHT22;12634;50.852;5.676;2024-01-15T08:25:02;1.70;99.90
24468;DHT22;12634;50.852;5.676;2024-01-15T08:27:30;1.80;99.90
24468;DHT22;12634;50.852;5.676;2024-01-15T08:29:57;1.80;99.90
24468;DHT22;12634;50.852;5.676;2024-01-15T08:32:24;1.80;99.90
24468;DHT22;12634;50.852;5.676;2024-01-15T08:34:52;1.80;99.90
24468;DHT22;12634;50.852;5.676;2024-01-15T08:37:19;1.80;99.90
24468;DHT22;12634;50.852;5.676;2024-01-15T08:39:46;1.80;99.90
24468;DHT22;12634;50.852;5.676;2024-01-15T08:42:14;1.80;99.90
24468;DHT22;12634;50.852;5.676;2024-01-15T08:44:42;1.80;99.90
24468;DHT22;12634;50.852;5.676;2024-01-15T08:47:09;1.80;99.90
24468;DHT22;12634;50.852;5.676;2024-01-15T08:49:36;1.70;99.90
24468;DHT22;12634;50.852;5.676;2024-01-15T08:52:03;1.60;99.90
24468;DHT22;12634;50.852;5.676;2024-01-15T08:54:30;1.50;99.90
24468;DHT22;12634;50.852;5.676;2024-01-15T08:56:58;1.50;99.90
24468;DHT22;12634;50.852;5.676;2024-01-15T08:59:27;1.50;99.90
24468;DHT22;12634;50.852;5.676;2024-01-15T09:01:55;1.40;99.90
24468;DHT22;12634;50.852;5.676;2024-01-15T09:04:23;1.40;99.90
24468;DHT22;12634;50.852;5.676;2024-01-15T09:06:50;1.40;99.90
24468;DHT22;12634;50.852;5.676;2024-01-15T09:09:17;1.40;99.90
24468;DHT22;12634;50.852;5.676;2024-01-15T09:11:45;1.40;99.90
24468;DHT22;12634;50.852;5.676;2024-01-15T09:14:13;1.30;99.90
24468;DHT22;12634;50.852;5.676;2024-01-15T09:16:41;1.30;99.90
24468;DHT22;12634;50.852;5.676;2024-01-15T09:19:08;1.30;99.90
24468;DHT22;12634;50.852;5.676;2024-01-15T09:21:37;1.20;99.90
24468;DHT22;12634;50.852;5.676;2024-01-15T09:24:05;1.20;99.90
24468;DHT22;12634;50.852;5.676;2024-01-15T09:26:32;1.20;99.90
24468;DHT22;12634;50.852;5.676;2024-01-15T09:29:00;1.30;99.90
24468;DHT22;12634;50.852;5.676;2024-01-15T09:31:28;1.30;99.90
24468;DHT22;12634;50.852;5.676;2024-01-15T09:33:57;1.30;99.90
24468;DHT22;12634;50.852;5.676;2024-01-15T09:36:26;1.30;99.90
24468;DHT22;12634;50.852;5.676;2024-01-15T09:38:53;1.30;99.90
24468;DHT22;12634;50.852;5.676;2024-01-15T09:41:20;1.30;99.90
24468;DHT22;12634;50.852;5.676;2024-01-15T09:43:47;1.30;99.90
24468;DHT22;12634;50.852;5.676;2024-01-15T09:46:15;1.40;99.90
24468;DHT22;12634;50.852;5.676;2024-01-15T09:48:43;1.40;99.90
24468;DHT22;12634;50.852;5.676;2024-01-15T09:51:12;1.40;99.90
24468;DHT22;12634;50.852;5.676;2024-01-15T09:53:39;1.50;99.90
24468;DHT22;12634;50.852;5.676;2024-01-15T09:56:08;1.50;99.90
24468;DHT22;12634;50.852;5.676;2024-01-15T09:58:39;1.60;99.90
24468;DHT22;12634;50.852;5.676;2024-01-15T10:01:08;1.60;99.90
24468;DHT22;12634;50.852;5.676;2024-01-15T10:03:35;1.70;99.90
24468;DHT22;12634;50.852;5.676;2024-01-15T10:06:05;1.80;99.90
24468;DHT22;12634;50.852;5.676;2024-01-15T10:08:35;1.80;99.90
24468;DHT22;12634;50.852;5.676;2024-01-15T10:11:03;1.80;99.90
24468;DHT22;12634;50.852;5.676;2024-01-15T10:13:31;1.80;99.90
24468;DHT22;12634;50.852;5.676;2024-01-15T10:15:58;1.80;99.90
24468;DHT22;12634;50.852;5.676;2024-01-15T10:18:26;1.90;99.90
24468;DHT22;12634;50.852;5.676;2024-01-15T10:20:53;1.90;99.90
24468;DHT22;12634;50.852;5.676;2024-01-15T10:23:20;1.90;99.90
24468;DHT22;12634;50.852;5.676;2024-01-15T10:25:50;1.90;99.90
24468;DHT22;12634;50.852;5.676;2024-01-15T10:28:19;2.00;99.90
24468;DHT22;12634;50.852;5.676;2024-01-15T10:30:46;2.10;99.90
24468;DHT22;12634;50.852;5.676;2024-01-15T10:33:13;2.10;99.90
24468;DHT22;12634;50.852;5.676;2024-01-15T10:35:41;2.10;99.90
24468;DHT22;12634;50.852;5.676;2024-01-15T10:38:08;2.10;99.90
24468;DHT22;12634;50.852;5.676;2024-01-15T10:40:35;2.20;99.90
24468;DHT22;12634;50.852;5.676;2024-01-15T10:43:04;2.30;99.90
24468;DHT22;12634;50.852;5.676;2024-01-15T10:45:31;2.40;99.90
24468;DHT22;12634;50.852;5.676;2024-01-15T10:47:58;2.50;99.90
24468;DHT22;12634;50.852;5.676;2024-01-15T10:50:29;2.50;99.90
24468;DHT22;12634;50.852;5.676;2024-01-15T10:52:58;2.50;99.90
24468;DHT22;12634;50.852;5.676;2024-01-15T10:55:26;2.50;99.90
24468;DHT22;12634;50.852;5.676;2024-01-15T10:57:54;2.50;99.90
24468;DHT22;12634;50.852;5.676;2024-01-15T11:00:23;2.60;99.90
24468;DHT22;12634;50.852;5.676;2024-01-15T11:02:51;2.60;99.90
24468;DHT22;12634;50.852;5.676;2024-01-15T11:05:21;2.60;99.90
24468;DHT22;12634;50.852;5.676;2024-01-15T11:07:49;2.80;99.90
24468;DHT22;12634;50.852;5.676;2024-01-15T11:10:38;2.90;99.90
24468;DHT22;12634;50.852;5.676;2024-01-15T11:13:13;3.10;99.90
24468;DHT22;12634;50.852;5.676;2024-01-15T11:15:59;3.00;99.90
24468;DHT22;12634;50.852;5.676;2024-01-15T11:18:28;3.00;99.90
24468;DHT22;12634;50.852;5.676;2024-01-15T11:21:20;3.00;99.90
24468;DHT22;12634;50.852;5.676;2024-01-15T11:23:50;3.00;99.90
24468;DHT22;12634;50.852;5.676;2024-01-15T11:26:35;3.40;99.90
24468;DHT22;12634;50.852;5.676;2024-01-15T11:29:04;3.50;99.90
24468;DHT22;12634;50.852;5.676;2024-01-15T11:31:59;3.60;99.90
24468;DHT22;12634;50.852;5.676;2024-01-15T11:34:58;4.00;99.90
24468;DHT22;12634;50.852;5.676;2024-01-15T11:37:28;4.20;99.90
24468;DHT22;12634;50.852;5.676;2024-01-15T11:40:02;4.40;99.90
24468;DHT22;12634;50.852;5.676;2024-01-15T11:42:30;4.40;99.90
24468;DHT22;12634;50.852;5.676;2024-01-15T11:44:57;4.30;99.90
24468;DHT22;12634;50.852;5.676;2024-01-15T11:48:08;4.00;99.90
24468;DHT22;12634;50.852;5.676;2024-01-15T11:50:41;3.80;99.90
24468;DHT22;12634;50.852;5.676;2024-01-15T11:53:16;3.80;99.90
24468;DHT22;12634;50.852;5.676;2024-01-15T11:55:45;3.60;99.90
24468;DHT22;12634;50.852;5.676;2024-01-15T11:58:14;3.50;99.90
24468;DHT22;12634;50.852;5.676;2024-01-15T12:00:44;3.50;99.90
24468;DHT22;12634;50.852;5.676;2024-01-15T12:03:13;3.40;99.90
24468;DHT22;12634;50.852;5.676;2024-01-15T12:05:40;3.30;99.90
24468;DHT22;12634;50.852;5.676;2024-01-15T12:08:08;3.20;99.90
24468;DHT22;12634;50.852;5.676;2024-01-15T12:10:37;3.00;99.90
24468;DHT22;12634;50.852;5.676;2024-01-15T12:13:10;2.80;99.90
24468;DHT22;12634;50.852;5.676;2024-01-15T12:15:37;2.50;99.90
24468;DHT22;12634;50.852;5.676;2024-01-15T12:18:08;2.30;99.90
24468;DHT22;12634;50.852;5.676;2024-01-15T12:20:36;2.10;99.90
24468;DHT22;12634;50.852;5.676;2024-01-15T12:23:04;1.80;99.90
24468;DHT22;12634;50.852;5.676;2024-01-15T12:25:32;1.60;99.90
24468;DHT22;12634;50.852;5.676;2024-01-15T12:28:00;1.60;99.90
24468;DHT22;12634;50.852;5.676;2024-01-15T12:30:28;1.50;99.90
24468;DHT22;12634;50.852;5.676;2024-01-15T12:32:57;1.40;99.90
24468;DHT22;12634;50.852;5.676;2024-01-15T12:35:24;1.30;99.90
24468;DHT22;12634;50.852;5.676;2024-01-15T12:37:54;1.20;99.90
24468;DHT22;12634;50.852;5.676;2024-01-15T12:40:23;1.20;99.90
24468;DHT22;12634;50.852;5.676;2024-01-15T12:42:51;1.20;99.90
24468;DHT22;12634;50.852;5.676;2024-01-15T12:45:18;1.20;99.90
24468;DHT22;12634;50.852;5.676;2024-01-15T12:47:46;1.20;99.90
24468;DHT22;12634;50.852;5.676;2024-01-15T12:50:13;1.20;99.90
24468;DHT22;12634;50.852;5.676;2024-01-15T12:52:41;1.20;99.90
24468;DHT22;12634;50.852;5.676;2024-01-15T12:55:10;1.10;99.90
24468;DHT22;12634;50.852;5.676;2024-01-15T12:57:38;1.20;99.90
24468;DHT22;12634;50.852;5.676;2024-01-15T13:00:06;1.20;99.90
24468;DHT22;12634;50.852;5.676;2024-01-15T13:02:38;1.30;99.90
24468;DHT22;12634;50.852;5.676;2024-01-15T13:05:06;1.40;99.90
24468;DHT22;12634;50.852;5.676;2024-01-15T13:07:34;1.40;99.90
24468;DHT22;12634;50.852;5.676;2024-01-15T13:10:01;1.50;99.90
24468;DHT22;12634;50.852;5.676;2024-01-15T13:12:30;1.60;99.90
24468;DHT22;12634;50.852;5.676;2024-01-15T13:14:58;1.90;99.90
24468;DHT22;12634;50.852;5.676;2024-01-15T13:17:25;2.10;99.90
24468;DHT22;12634;50.852;5.676;2024-01-15T13:19:52;2.20;99.90
24468;DHT22;12634;50.852;5.676;2024-01-15T13:22:19;2.40;99.90
24468;DHT22;12634;50.852;5.676;2024-01-15T13:24:47;2.20;99.90
24468;DHT22;12634;50.852;5.676;2024-01-15T13:27:14;2.00;99.90
24468;DHT22;12634;50.852;5.676;2024-01-15T13:29:42;2.00;99.90
24468;DHT22;12634;50.852;5.676;2024-01-15T13:32:13;2.00;99.90
24468;DHT22;12634;50.852;5.676;2024-01-15T13:34:44;2.00;99.90
24468;DHT22;12634;50.852;5.676;2024-01-15T13:37:11;2.00;99.90
24468;DHT22;12634;50.852;5.676;2024-01-15T13:39:38;2.00;99.90
24468;DHT22;12634;50.852;5.676;2024-01-15T13:42:06;2.00;99.90
24468;DHT22;12634;50.852;5.676;2024-01-15T13:44:33;2.00;99.90
24468;DHT22;12634;50.852;5.676;2024-01-15T13:47:01;2.00;99.90
24468;DHT22;12634;50.852;5.676;2024-01-15T13:49:29;1.90;99.90
24468;DHT22;12634;50.852;5.676;2024-01-15T13:51:56;1.90;99.90
24468;DHT22;12634;50.852;5.676;2024-01-15T13:54:23;1.90;99.90
24468;DHT22;12634;50.852;5.676;2024-01-15T13:56:50;1.90;99.90
24468;DHT22;12634;50.852;5.676;2024-01-15T13:59:17;1.90;99.90
24468;DHT22;12634;50.852;5.676;2024-01-15T14:01:45;1.90;99.90
24468;DHT22;12634;50.852;5.676;2024-01-15T14:04:14;1.90;99.90
24468;DHT22;12634;50.852;5.676;2024-01-15T14:06:41;1.80;99.90
24468;DHT22;12634;50.852;5.676;2024-01-15T14:09:08;1.80;99.90
24468;DHT22;12634;50.852;5.676;2024-01-15T14:11:36;1.80;99.90
24468;DHT22;12634;50.852;5.676;2024-01-15T14:14:03;1.70;99.90
24468;DHT22;12634;50.852;5.676;2024-01-15T14:16:31;1.70;99.90
24468;DHT22;12634;50.852;5.676;2024-01-15T14:18:58;1.80;99.90
24468;DHT22;12634;50.852;5.676;2024-01-15T14:21:26;1.80;99.90
24468;DHT22;12634;50.852;5.676;2024-01-15T14:23:53;1.80;99.90
24468;DHT22;12634;50.852;5.676;2024-01-15T14:26:20;1.70;99.90
24468;DHT22;12634;50.852;5.676;2024-01-15T14:28:47;1.70;99.90
24468;DHT22;12634;50.852;5.676;2024-01-15T14:31:15;1.70;99.90
24468;DHT22;12634;50.852;5.676;2024-01-15T14:33:42;1.70;99.90
24468;DHT22;12634;50.852;5.676;2024-01-15T14:36:09;1.70;99.90
24468;DHT22;12634;50.852;5.676;2024-01-15T14:38:38;1.70;99.90
24468;DHT22;12634;50.852;5.676;2024-01-15T14:41:05;1.70;99.90
24468;DHT22;12634;50.852;5.676;2024-01-15T14:43:32;1.70;99.90
24468;DHT22;12634;50.852;5.676;2024-01-15T14:46:00;1.60;99.90
24468;DHT22;12634;50.852;5.676;2024-01-15T14:48:27;1.70;99.90
24468;DHT22;12634;50.852;5.676;2024-01-15T14:50:55;1.70;99.90
24468;DHT22;12634;50.852;5.676;2024-01-15T14:53:22;1.60;99.90
24468;DHT22;12634;50.852;5.676;2024-01-15T14:55:51;1.60;99.90
24468;DHT22;12634;50.852;5.676;2024-01-15T14:58:19;1.60;99.90
24468;DHT22;12634;50.852;5.676;2024-01-15T15:00:47;1.70;99.90
24468;DHT22;12634;50.852;5.676;2024-01-15T15:03:14;1.60;99.90
24468;DHT22;12634;50.852;5.676;2024-01-15T15:05:42;1.60;99.90
24468;DHT22;12634;50.852;5.676;2024-01-15T15:08:09;1.60;99.90
24468;DHT22;12634;50.852;5.676;2024-01-15T15:10:37;1.50;99.90
24468;DHT22;12634;50.852;5.676;2024-01-15T15:13:07;1.50;99.90
24468;DHT22;12634;50.852;5.676;2024-01-15T15:15:35;1.50;99.90
24468;DHT22;12634;50.852;5.676;2024-01-15T15:18:03;1.50;99.90
24468;DHT22;12634;50.852;5.676;2024-01-15T15:20:30;1.50;99.90
24468;DHT22;12634;50.852;5.676;2024-01-15T15:22:57;1.50;99.90
24468;DHT22;12634;50.852;5.676;2024-01-15T15:25:25;1.50;99.90
24468;DHT22;12634;50.852;5.676;2024-01-15T15:27:52;1.50;99.90
24468;DHT22;12634;50.852;5.676;2024-01-15T15:30:21;1.50;99.90
24468;DHT22;12634;50.852;5.676;2024-01-15T15:32:48;1.60;99.90
24468;DHT22;12634;50.852;5.676;2024-01-15T15:35:15;1.60;99.90
24468;DHT22;12634;50.852;5.676;2024-01-15T15:37:42;1.60;99.90
24468;DHT22;12634;50.852;5.676;2024-01-15T15:40:10;1.60;99.90
24468;DHT22;12634;50.852;5.676;2024-01-15T15:42:38;1.60;99.90
24468;DHT22;12634;50.852;5.676;2024-01-15T15:45:06;1.60;99.90
24468;DHT22;12634;50.852;5.676;2024-01-15T15:47:36;1.50;99.90
24468;DHT22;12634;50.852;5.676;2024-01-15T15:50:05;1.50;99.90